Terminal Aerodrome Forecast
Issued by NWS

Home | Current Version | Previous Version | Text Only | Print | Product List | Glossary Off
Versions: 1 2 3 4 5 6 7 8 9 10 11 12 13 14 15 16 17

000
FTUS43 KABR 181700
TAFMBG
TAF
KMBG 181728Z 1818/1918 16014G20KT P6SM SCT250
     FM190100 15013KT P6SM BKN250
      TEMPO 1910/1913 BKN008
     FM191300 27012KT P6SM BKN250=

USA.gov is the U.S. government's official web portal to all federal, state and local government web resources and services.